sensor_id;sensor_type;location;lat;lon;timestamp;P1;durP1;ratioP1;P2;durP2;ratioP2
79241;SDS011;68670;48.720;9.118;2023-04-03T00:01:17;16.17;;;6.07;;
79241;SDS011;68670;48.720;9.118;2023-04-03T00:06:09;17.97;;;6.33;;
79241;SDS011;68670;48.720;9.118;2023-04-03T00:08:37;14.25;;;5.78;;
79241;SDS011;68670;48.720;9.118;2023-04-03T00:11:04;16.60;;;6.63;;
79241;SDS011;68670;48.720;9.118;2023-04-03T00:13:30;18.15;;;6.30;;
79241;SDS011;68670;48.720;9.118;2023-04-03T00:15:58;21.02;;;6.80;;
79241;SDS011;68670;48.720;9.118;2023-04-03T00:18:24;15.77;;;6.00;;
79241;SDS011;68670;48.720;9.118;2023-04-03T00:20:49;22.02;;;6.07;;
79241;SDS011;68670;48.720;9.118;2023-04-03T00:23:17;18.55;;;6.20;;
79241;SDS011;68670;48.720;9.118;2023-04-03T00:25:43;19.17;;;6.32;;
79241;SDS011;68670;48.720;9.118;2023-04-03T00:28:10;27.17;;;6.95;;
79241;SDS011;68670;48.720;9.118;2023-04-03T00:30:36;14.90;;;6.18;;
79241;SDS011;68670;48.720;9.118;2023-04-03T00:33:02;24.42;;;6.55;;
79241;SDS011;68670;48.720;9.118;2023-04-03T00:35:33;18.55;;;6.53;;
79241;SDS011;68670;48.720;9.118;2023-04-03T00:37:59;18.38;;;6.43;;
79241;SDS011;68670;48.720;9.118;2023-04-03T00:40:27;23.88;;;6.30;;
79241;SDS011;68670;48.720;9.118;2023-04-03T00:42:57;18.98;;;6.97;;
79241;SDS011;68670;48.720;9.118;2023-04-03T00:45:29;15.68;;;5.88;;
79241;SDS011;68670;48.720;9.118;2023-04-03T00:47:56;22.00;;;6.50;;
79241;SDS011;68670;48.720;9.118;2023-04-03T00:50:24;21.08;;;6.38;;
79241;SDS011;68670;48.720;9.118;2023-04-03T00:52:51;15.75;;;6.35;;
79241;SDS011;68670;48.720;9.118;2023-04-03T00:55:16;18.55;;;6.57;;
79241;SDS011;68670;48.720;9.118;2023-04-03T00:57:42;16.17;;;6.35;;
79241;SDS011;68670;48.720;9.118;2023-04-03T01:00:11;21.58;;;6.72;;
79241;SDS011;68670;48.720;9.118;2023-04-03T01:02:39;17.15;;;5.75;;
79241;SDS011;68670;48.720;9.118;2023-04-03T01:05:06;14.27;;;5.65;;
79241;SDS011;68670;48.720;9.118;2023-04-03T01:07:32;22.02;;;6.80;;
79241;SDS011;68670;48.720;9.118;2023-04-03T01:09:59;15.50;;;5.70;;
79241;SDS011;68670;48.720;9.118;2023-04-03T01:12:28;18.40;;;6.50;;
79241;SDS011;68670;48.720;9.118;2023-04-03T01:14:59;17.95;;;5.90;;
79241;SDS011;68670;48.720;9.118;2023-04-03T01:25:42;18.25;;;6.03;;
79241;SDS011;68670;48.720;9.118;2023-04-03T01:28:14;18.25;;;6.03;;
79241;SDS011;68670;48.720;9.118;2023-04-03T01:33:56;18.92;;;6.20;;
79241;SDS011;68670;48.720;9.118;2023-04-03T01:36:25;22.70;;;7.07;;
79241;SDS011;68670;48.720;9.118;2023-04-03T01:38:54;22.75;;;6.35;;
79241;SDS011;68670;48.720;9.118;2023-04-03T01:41:21;27.15;;;6.43;;
79241;SDS011;68670;48.720;9.118;2023-04-03T01:43:47;16.92;;;5.72;;
79241;SDS011;68670;48.720;9.118;2023-04-03T01:46:14;16.92;;;5.82;;
79241;SDS011;68670;48.720;9.118;2023-04-03T01:48:40;17.92;;;6.70;;
79241;SDS011;68670;48.720;9.118;2023-04-03T01:51:06;20.85;;;6.22;;
79241;SDS011;68670;48.720;9.118;2023-04-03T01:53:31;20.92;;;6.07;;
79241;SDS011;68670;48.720;9.118;2023-04-03T01:55:57;19.40;;;6.63;;
79241;SDS011;68670;48.720;9.118;2023-04-03T01:58:22;17.33;;;5.78;;
79241;SDS011;68670;48.720;9.118;2023-04-03T02:00:50;17.02;;;6.63;;
79241;SDS011;68670;48.720;9.118;2023-04-03T02:03:18;19.38;;;5.65;;
79241;SDS011;68670;48.720;9.118;2023-04-03T02:05:44;16.25;;;5.60;;
79241;SDS011;68670;48.720;9.118;2023-04-03T02:08:14;22.05;;;6.25;;
79241;SDS011;68670;48.720;9.118;2023-04-03T02:10:42;17.15;;;5.53;;
79241;SDS011;68670;48.720;9.118;2023-04-03T02:13:08;14.88;;;5.72;;
79241;SDS011;68670;48.720;9.118;2023-04-03T02:15:33;18.20;;;5.78;;
79241;SDS011;68670;48.720;9.118;2023-04-03T02:18:04;22.00;;;6.38;;
79241;SDS011;68670;48.720;9.118;2023-04-03T02:20:32;22.92;;;6.38;;
79241;SDS011;68670;48.720;9.118;2023-04-03T02:22:58;20.73;;;6.43;;
79241;SDS011;68670;48.720;9.118;2023-04-03T02:25:24;22.17;;;6.13;;
79241;SDS011;68670;48.720;9.118;2023-04-03T02:27:50;16.05;;;6.10;;
79241;SDS011;68670;48.720;9.118;2023-04-03T02:30:15;20.23;;;6.30;;
79241;SDS011;68670;48.720;9.118;2023-04-03T02:32:43;14.88;;;5.85;;
79241;SDS011;68670;48.720;9.118;2023-04-03T02:35:09;17.90;;;5.63;;
79241;SDS011;68670;48.720;9.118;2023-04-03T02:37:36;15.73;;;5.82;;
79241;SDS011;68670;48.720;9.118;2023-04-03T02:40:02;30.02;;;7.05;;
79241;SDS011;68670;48.720;9.118;2023-04-03T02:42:35;21.20;;;6.60;;
79241;SDS011;68670;48.720;9.118;2023-04-03T02:45:02;17.27;;;6.18;;
79241;SDS011;68670;48.720;9.118;2023-04-03T02:47:31;15.60;;;5.97;;
79241;SDS011;68670;48.720;9.118;2023-04-03T02:49:58;17.90;;;6.13;;
79241;SDS011;68670;48.720;9.118;2023-04-03T02:52:25;14.18;;;5.78;;
79241;SDS011;68670;48.720;9.118;2023-04-03T02:54:51;22.60;;;6.47;;
79241;SDS011;68670;48.720;9.118;2023-04-03T02:57:21;19.48;;;6.53;;
79241;SDS011;68670;48.720;9.118;2023-04-03T02:59:46;16.80;;;5.70;;
79241;SDS011;68670;48.720;9.118;2023-04-03T03:02:16;15.25;;;5.93;;
79241;SDS011;68670;48.720;9.118;2023-04-03T03:04:44;23.33;;;6.25;;
79241;SDS011;68670;48.720;9.118;2023-04-03T03:07:12;24.13;;;6.30;;
79241;SDS011;68670;48.720;9.118;2023-04-03T03:09:37;20.73;;;6.20;;
79241;SDS011;68670;48.720;9.118;2023-04-03T03:12:03;18.08;;;6.53;;
79241;SDS011;68670;48.720;9.118;2023-04-03T03:14:28;14.98;;;6.25;;
79241;SDS011;68670;48.720;9.118;2023-04-03T03:16:55;16.20;;;6.30;;
79241;SDS011;68670;48.720;9.118;2023-04-03T03:19:23;21.65;;;6.85;;
79241;SDS011;68670;48.720;9.118;2023-04-03T03:21:49;20.70;;;5.70;;
79241;SDS011;68670;48.720;9.118;2023-04-03T03:24:15;14.77;;;5.65;;
79241;SDS011;68670;48.720;9.118;2023-04-03T03:26:40;15.93;;;6.15;;
79241;SDS011;68670;48.720;9.118;2023-04-03T03:29:08;13.60;;;5.53;;
79241;SDS011;68670;48.720;9.118;2023-04-03T03:31:36;19.48;;;6.50;;
79241;SDS011;68670;48.720;9.118;2023-04-03T03:34:01;20.08;;;6.20;;
79241;SDS011;68670;48.720;9.118;2023-04-03T03:36:27;19.95;;;6.95;;
79241;SDS011;68670;48.720;9.118;2023-04-03T03:38:54;16.30;;;6.45;;
79241;SDS011;68670;48.720;9.118;2023-04-03T03:41:19;19.75;;;6.50;;
79241;SDS011;68670;48.720;9.118;2023-04-03T03:43:45;18.23;;;6.32;;
79241;SDS011;68670;48.720;9.118;2023-04-03T03:46:13;18.65;;;5.95;;
79241;SDS011;68670;48.720;9.118;2023-04-03T03:48:38;20.75;;;6.38;;
79241;SDS011;68670;48.720;9.118;2023-04-03T03:51:04;21.65;;;6.13;;
79241;SDS011;68670;48.720;9.118;2023-04-03T03:53:29;19.98;;;6.82;;
79241;SDS011;68670;48.720;9.118;2023-04-03T03:55:55;15.70;;;5.45;;
79241;SDS011;68670;48.720;9.118;2023-04-03T03:58:20;17.88;;;6.07;;
79241;SDS011;68670;48.720;9.118;2023-04-03T04:00:48;20.75;;;7.10;;
79241;SDS011;68670;48.720;9.118;2023-04-03T04:03:15;18.48;;;5.80;;
79241;SDS011;68670;48.720;9.118;2023-04-03T04:05:43;19.67;;;6.28;;
79241;SDS011;68670;48.720;9.118;2023-04-03T04:08:10;16.40;;;6.93;;
79241;SDS011;68670;48.720;9.118;2023-04-03T04:10:36;16.73;;;6.07;;
79241;SDS011;68670;48.720;9.118;2023-04-03T04:13:02;16.58;;;5.93;;
79241;SDS011;68670;48.720;9.118;2023-04-03T04:15:28;19.48;;;6.55;;
79241;SDS011;68670;48.720;9.118;2023-04-03T04:17:57;16.17;;;6.82;;
79241;SDS011;68670;48.720;9.118;2023-04-03T04:20:23;17.30;;;5.88;;
79241;SDS011;68670;48.720;9.118;2023-04-03T04:22:53;21.17;;;6.07;;
79241;SDS011;68670;48.720;9.118;2023-04-03T04:25:20;15.60;;;6.40;;
79241;SDS011;68670;48.720;9.118;2023-04-03T04:27:45;15.75;;;6.93;;
79241;SDS011;68670;48.720;9.118;2023-04-03T04:30:13;22.13;;;6.60;;
79241;SDS011;68670;48.720;9.118;2023-04-03T04:32:39;15.18;;;5.80;;
79241;SDS011;68670;48.720;9.118;2023-04-03T04:35:04;22.38;;;6.68;;
79241;SDS011;68670;48.720;9.118;2023-04-03T04:37:30;20.80;;;6.28;;
79241;SDS011;68670;48.720;9.118;2023-04-03T04:39:56;15.23;;;5.93;;
79241;SDS011;68670;48.720;9.118;2023-04-03T04:42:21;19.95;;;6.30;;
79241;SDS011;68670;48.720;9.118;2023-04-03T04:44:47;20.40;;;6.70;;
79241;SDS011;68670;48.720;9.118;2023-04-03T04:47:12;17.10;;;7.15;;
79241;SDS011;68670;48.720;9.118;2023-04-03T04:49:37;16.27;;;6.40;;
79241;SDS011;68670;48.720;9.118;2023-04-03T04:52:03;20.98;;;7.38;;
79241;SDS011;68670;48.720;9.118;2023-04-03T04:54:28;15.93;;;6.18;;
79241;SDS011;68670;48.720;9.118;2023-04-03T04:56:56;16.30;;;5.57;;
79241;SDS011;68670;48.720;9.118;2023-04-03T04:59:26;21.13;;;5.88;;
79241;SDS011;68670;48.720;9.118;2023-04-03T05:01:51;13.98;;;5.30;;
79241;SDS011;68670;48.720;9.118;2023-04-03T05:04:17;18.10;;;6.25;;
79241;SDS011;68670;48.720;9.118;2023-04-03T05:06:45;15.93;;;5.45;;
79241;SDS011;68670;48.720;9.118;2023-04-03T05:09:10;17.60;;;6.07;;
79241;SDS011;68670;48.720;9.118;2023-04-03T05:11:38;15.52;;;5.72;;
79241;SDS011;68670;48.720;9.118;2023-04-03T05:14:03;14.88;;;4.95;;
79241;SDS011;68670;48.720;9.118;2023-04-03T05:16:33;15.00;;;5.47;;
79241;SDS011;68670;48.720;9.118;2023-04-03T05:19:01;16.58;;;5.68;;
79241;SDS011;68670;48.720;9.118;2023-04-03T05:21:29;18.67;;;5.70;;
79241;SDS011;68670;48.720;9.118;2023-04-03T05:23:57;18.02;;;5.43;;
79241;SDS011;68670;48.720;9.118;2023-04-03T05:26:24;16.75;;;6.35;;
79241;SDS011;68670;48.720;9.118;2023-04-03T05:28:51;18.52;;;6.07;;
79241;SDS011;68670;48.720;9.118;2023-04-03T05:31:16;18.88;;;6.13;;
79241;SDS011;68670;48.720;9.118;2023-04-03T05:33:42;15.75;;;5.78;;
79241;SDS011;68670;48.720;9.118;2023-04-03T05:36:07;18.42;;;5.68;;
79241;SDS011;68670;48.720;9.118;2023-04-03T05:38:37;15.45;;;4.85;;
79241;SDS011;68670;48.720;9.118;2023-04-03T05:41:03;21.77;;;5.82;;
79241;SDS011;68670;48.720;9.118;2023-04-03T05:43:28;17.80;;;4.72;;
79241;SDS011;68670;48.720;9.118;2023-04-03T05:45:57;14.52;;;4.53;;
79241;SDS011;68670;48.720;9.118;2023-04-03T05:48:27;15.32;;;5.35;;
79241;SDS011;68670;48.720;9.118;2023-04-03T05:50:55;18.60;;;5.47;;
79241;SDS011;68670;48.720;9.118;2023-04-03T05:53:25;16.48;;;5.45;;
79241;SDS011;68670;48.720;9.118;2023-04-03T05:55:53;19.83;;;7.15;;
79241;SDS011;68670;48.720;9.118;2023-04-03T05:58:18;17.00;;;6.07;;
79241;SDS011;68670;48.720;9.118;2023-04-03T06:00:44;19.13;;;5.95;;
79241;SDS011;68670;48.720;9.118;2023-04-03T06:03:10;16.05;;;6.15;;
79241;SDS011;68670;48.720;9.118;2023-04-03T06:05:37;22.33;;;6.68;;
79241;SDS011;68670;48.720;9.118;2023-04-03T06:08:03;21.38;;;6.65;;
79241;SDS011;68670;48.720;9.118;2023-04-03T06:10:28;20.98;;;6.50;;
79241;SDS011;68670;48.720;9.118;2023-04-03T06:12:54;21.15;;;6.72;;
79241;SDS011;68670;48.720;9.118;2023-04-03T06:15:19;21.10;;;6.32;;
79241;SDS011;68670;48.720;9.118;2023-04-03T06:17:47;17.33;;;5.93;;
79241;SDS011;68670;48.720;9.118;2023-04-03T06:20:16;17.40;;;6.80;;
79241;SDS011;68670;48.720;9.118;2023-04-03T06:22:44;17.02;;;5.95;;
79241;SDS011;68670;48.720;9.118;2023-04-03T06:25:09;19.08;;;6.32;;
79241;SDS011;68670;48.720;9.118;2023-04-03T06:27:35;20.25;;;5.75;;
79241;SDS011;68670;48.720;9.118;2023-04-03T06:30:03;19.60;;;5.97;;
79241;SDS011;68670;48.720;9.118;2023-04-03T06:32:29;18.40;;;6.45;;
79241;SDS011;68670;48.720;9.118;2023-04-03T06:34:55;17.25;;;6.15;;
79241;SDS011;68670;48.720;9.118;2023-04-03T06:37:23;20.17;;;6.38;;
79241;SDS011;68670;48.720;9.118;2023-04-03T06:39:51;21.50;;;5.95;;
79241;SDS011;68670;48.720;9.118;2023-04-03T06:42:16;22.15;;;5.68;;
79241;SDS011;68670;48.720;9.118;2023-04-03T06:44:42;13.10;;;5.60;;
79241;SDS011;68670;48.720;9.118;2023-04-03T06:47:09;16.15;;;5.65;;
79241;SDS011;68670;48.720;9.118;2023-04-03T06:49:37;24.05;;;5.75;;
79241;SDS011;68670;48.720;9.118;2023-04-03T06:52:03;17.08;;;5.78;;
79241;SDS011;68670;48.720;9.118;2023-04-03T06:54:29;17.58;;;6.38;;
79241;SDS011;68670;48.720;9.118;2023-04-03T06:56:55;19.27;;;5.97;;
79241;SDS011;68670;48.720;9.118;2023-04-03T06:59:20;16.83;;;5.57;;
79241;SDS011;68670;48.720;9.118;2023-04-03T07:01:46;14.27;;;5.88;;
79241;SDS011;68670;48.720;9.118;2023-04-03T07:06:37;19.17;;;6.63;;
79241;SDS011;68670;48.720;9.118;2023-04-03T07:09:07;14.77;;;5.25;;
79241;SDS011;68670;48.720;9.118;2023-04-03T07:11:36;23.00;;;7.32;;
79241;SDS011;68670;48.720;9.118;2023-04-03T07:14:04;17.13;;;5.57;;
79241;SDS011;68670;48.720;9.118;2023-04-03T07:16:29;16.63;;;6.13;;
79241;SDS011;68670;48.720;9.118;2023-04-03T07:18:57;21.15;;;6.15;;
79241;SDS011;68670;48.720;9.118;2023-04-03T07:21:23;16.83;;;6.15;;
79241;SDS011;68670;48.720;9.118;2023-04-03T07:26:14;23.67;;;6.72;;
79241;SDS011;68670;48.720;9.118;2023-04-03T07:28:39;17.08;;;6.82;;
79241;SDS011;68670;48.720;9.118;2023-04-03T07:31:11;13.98;;;5.88;;
79241;SDS011;68670;48.720;9.118;2023-04-03T07:33:40;17.83;;;6.65;;
79241;SDS011;68670;48.720;9.118;2023-04-03T07:36:06;17.10;;;7.10;;
79241;SDS011;68670;48.720;9.118;2023-04-03T07:38:32;22.38;;;7.15;;
79241;SDS011;68670;48.720;9.118;2023-04-03T07:41:01;17.23;;;6.25;;
79241;SDS011;68670;48.720;9.118;2023-04-03T07:43:27;17.73;;;6.10;;
79241;SDS011;68670;48.720;9.118;2023-04-03T07:45:52;20.38;;;6.22;;
79241;SDS011;68670;48.720;9.118;2023-04-03T07:48:19;15.13;;;6.35;;
79241;SDS011;68670;48.720;9.118;2023-04-03T07:50:47;28.77;;;5.97;;
79241;SDS011;68670;48.720;9.118;2023-04-03T07:53:15;19.27;;;6.10;;
79241;SDS011;68670;48.720;9.118;2023-04-03T07:55:40;15.52;;;6.05;;
79241;SDS011;68670;48.720;9.118;2023-04-03T07:58:12;19.60;;;6.43;;
79241;SDS011;68670;48.720;9.118;2023-04-03T08:00:42;19.20;;;6.53;;
79241;SDS011;68670;48.720;9.118;2023-04-03T08:03:10;15.20;;;6.05;;
79241;SDS011;68670;48.720;9.118;2023-04-03T08:05:42;17.02;;;5.95;;
79241;SDS011;68670;48.720;9.118;2023-04-03T08:08:12;20.92;;;6.25;;
79241;SDS011;68670;48.720;9.118;2023-04-03T08:10:39;18.73;;;6.10;;
79241;SDS011;68670;48.720;9.118;2023-04-03T08:13:05;19.48;;;6.88;;
79241;SDS011;68670;48.720;9.118;2023-04-03T08:15:31;17.85;;;6.70;;
79241;SDS011;68670;48.720;9.118;2023-04-03T08:17:56;17.90;;;7.38;;
79241;SDS011;68670;48.720;9.118;2023-04-03T08:20:23;16.13;;;6.20;;
79241;SDS011;68670;48.720;9.118;2023-04-03T08:22:48;19.95;;;7.07;;
79241;SDS011;68670;48.720;9.118;2023-04-03T08:25:16;20.67;;;7.00;;
79241;SDS011;68670;48.720;9.118;2023-04-03T08:27:45;20.33;;;6.88;;
79241;SDS011;68670;48.720;9.118;2023-04-03T08:30:10;16.00;;;6.35;;
79241;SDS011;68670;48.720;9.118;2023-04-03T08:32:38;17.35;;;7.30;;
79241;SDS011;68670;48.720;9.118;2023-04-03T08:35:06;17.83;;;6.78;;
79241;SDS011;68670;48.720;9.118;2023-04-03T08:37:34;20.02;;;7.28;;
79241;SDS011;68670;48.720;9.118;2023-04-03T08:40:03;25.25;;;7.15;;
79241;SDS011;68670;48.720;9.118;2023-04-03T08:42:41;17.15;;;6.70;;
79241;SDS011;68670;48.720;9.118;2023-04-03T08:45:21;17.10;;;6.88;;
79241;SDS011;68670;48.720;9.118;2023-04-03T08:48:04;17.27;;;6.47;;
79241;SDS011;68670;48.720;9.118;2023-04-03T08:50:43;20.27;;;7.25;;
79241;SDS011;68670;48.720;9.118;2023-04-03T08:53:14;21.75;;;7.03;;
79241;SDS011;68670;48.720;9.118;2023-04-03T08:55:46;24.42;;;7.13;;
79241;SDS011;68670;48.720;9.118;2023-04-03T08:58:15;19.08;;;7.82;;
79241;SDS011;68670;48.720;9.118;2023-04-03T09:00:57;22.45;;;8.20;;
79241;SDS011;68670;48.720;9.118;2023-04-03T09:03:29;18.75;;;8.20;;
79241;SDS011;68670;48.720;9.118;2023-04-03T09:08:38;26.20;;;10.88;;
79241;SDS011;68670;48.720;9.118;2023-04-03T09:13:40;37.50;;;11.32;;
79241;SDS011;68670;48.720;9.118;2023-04-03T09:16:16;36.35;;;11.85;;
79241;SDS011;68670;48.720;9.118;2023-04-03T09:18:53;51.05;;;12.43;;
79241;SDS011;68670;48.720;9.118;2023-04-03T09:21:37;36.03;;;12.15;;
79241;SDS011;68670;48.720;9.118;2023-04-03T09:24:04;34.15;;;10.50;;
79241;SDS011;68670;48.720;9.118;2023-04-03T09:29:21;37.28;;;12.98;;
79241;SDS011;68670;48.720;9.118;2023-04-03T09:31:48;36.83;;;12.00;;
79241;SDS011;68670;48.720;9.118;2023-04-03T09:36:52;29.70;;;11.60;;
79241;SDS011;68670;48.720;9.118;2023-04-03T09:39:25;33.78;;;11.15;;
79241;SDS011;68670;48.720;9.118;2023-04-03T09:41:56;26.88;;;10.82;;
79241;SDS011;68670;48.720;9.118;2023-04-03T09:44:28;28.10;;;10.05;;
79241;SDS011;68670;48.720;9.118;2023-04-03T09:46:53;32.75;;;11.07;;
79241;SDS011;68670;48.720;9.118;2023-04-03T09:49:19;28.27;;;9.98;;
79241;SDS011;68670;48.720;9.118;2023-04-03T09:54:31;26.20;;;8.57;;
79241;SDS011;68670;48.720;9.118;2023-04-03T09:57:11;23.35;;;9.00;;
79241;SDS011;68670;48.720;9.118;2023-04-03T09:59:45;29.45;;;9.63;;
79241;SDS011;68670;48.720;9.118;2023-04-03T10:02:24;23.13;;;9.40;;
79241;SDS011;68670;48.720;9.118;2023-04-03T10:04:53;27.98;;;9.88;;
79241;SDS011;68670;48.720;9.118;2023-04-03T10:10:20;20.83;;;9.88;;
79241;SDS011;68670;48.720;9.118;2023-04-03T10:12:48;15.68;;;6.35;;
79241;SDS011;68670;48.720;9.118;2023-04-03T10:15:36;16.20;;;6.80;;
79241;SDS011;68670;48.720;9.118;2023-04-03T10:18:41;28.25;;;7.20;;
79241;SDS011;68670;48.720;9.118;2023-04-03T10:24:11;13.50;;;6.00;;
79241;SDS011;68670;48.720;9.118;2023-04-03T10:26:53;19.60;;;7.53;;
79241;SDS011;68670;48.720;9.118;2023-04-03T10:32:11;22.40;;;9.07;;
79241;SDS011;68670;48.720;9.118;2023-04-03T10:34:50;20.25;;;9.02;;
79241;SDS011;68670;48.720;9.118;2023-04-03T10:37:40;14.05;;;5.93;;
79241;SDS011;68670;48.720;9.118;2023-04-03T10:42:59;20.00;;;7.20;;
79241;SDS011;68670;48.720;9.118;2023-04-03T10:45:53;18.75;;;7.55;;
79241;SDS011;68670;48.720;9.118;2023-04-03T10:54:13;14.73;;;6.78;;
79241;SDS011;68670;48.720;9.118;2023-04-03T10:56:44;17.48;;;6.53;;
79241;SDS011;68670;48.720;9.118;2023-04-03T10:59:18;21.20;;;8.15;;
79241;SDS011;68670;48.720;9.118;2023-04-03T11:02:33;21.17;;;7.00;;
79241;SDS011;68670;48.720;9.118;2023-04-03T11:04:43;20.67;;;7.40;;
79241;SDS011;68670;48.720;9.118;2023-04-03T11:07:21;25.23;;;8.88;;
79241;SDS011;68670;48.720;9.118;2023-04-03T11:09:52;28.58;;;10.02;;
79241;SDS011;68670;48.720;9.118;2023-04-03T11:12:26;22.52;;;9.05;;
79241;SDS011;68670;48.720;9.118;2023-04-03T11:14:59;20.90;;;9.48;;
79241;SDS011;68670;48.720;9.118;2023-04-03T11:17:36;32.03;;;8.95;;
79241;SDS011;68670;48.720;9.118;2023-04-03T11:20:17;25.13;;;8.82;;
79241;SDS011;68670;48.720;9.118;2023-04-03T11:25:37;32.72;;;8.68;;
79241;SDS011;68670;48.720;9.118;2023-04-03T11:28:05;19.50;;;8.77;;
79241;SDS011;68670;48.720;9.118;2023-04-03T11:30:51;25.73;;;8.85;;
79241;SDS011;68670;48.720;9.118;2023-04-03T11:36:27;24.67;;;6.97;;
79241;SDS011;68670;48.720;9.118;2023-04-03T11:38:58;23.80;;;6.88;;
79241;SDS011;68670;48.720;9.118;2023-04-03T11:41:31;17.98;;;6.97;;
79241;SDS011;68670;48.720;9.118;2023-04-03T11:44:04;27.85;;;7.53;;
79241;SDS011;68670;48.720;9.118;2023-04-03T11:46:53;16.30;;;6.85;;
79241;SDS011;68670;48.720;9.118;2023-04-03T11:52:53;19.23;;;6.13;;
79241;SDS011;68670;48.720;9.118;2023-04-03T12:05:57;20.45;;;8.40;;
79241;SDS011;68670;48.720;9.118;2023-04-03T12:08:57;20.17;;;8.18;;
79241;SDS011;68670;48.720;9.118;2023-04-03T12:31:45;29.77;;;7.97;;
79241;SDS011;68670;48.720;9.118;2023-04-03T12:36:58;23.65;;;8.50;;
79241;SDS011;68670;48.720;9.118;2023-04-03T12:39:48;24.92;;;8.65;;
79241;SDS011;68670;48.720;9.118;2023-04-03T12:47:42;19.48;;;8.25;;
79241;SDS011;68670;48.720;9.118;2023-04-03T12:50:18;25.05;;;8.73;;
79241;SDS011;68670;48.720;9.118;2023-04-03T12:53:11;32.67;;;9.23;;
79241;SDS011;68670;48.720;9.118;2023-04-03T12:55:40;22.60;;;8.50;;
79241;SDS011;68670;48.720;9.118;2023-04-03T13:00:43;25.27;;;8.52;;
79241;SDS011;68670;48.720;9.118;2023-04-03T13:03:24;32.90;;;9.93;;
79241;SDS011;68670;48.720;9.118;2023-04-03T13:06:00;24.63;;;9.45;;
79241;SDS011;68670;48.720;9.118;2023-04-03T13:08:30;19.13;;;7.93;;
79241;SDS011;68670;48.720;9.118;2023-04-03T13:11:04;22.27;;;8.52;;
79241;SDS011;68670;48.720;9.118;2023-04-03T13:13:34;23.52;;;8.70;;
79241;SDS011;68670;48.720;9.118;2023-04-03T13:16:03;25.80;;;8.07;;
79241;SDS011;68670;48.720;9.118;2023-04-03T13:18:35;25.08;;;8.75;;
79241;SDS011;68670;48.720;9.118;2023-04-03T13:25:57;27.92;;;10.40;;
79241;SDS011;68670;48.720;9.118;2023-04-03T13:28:28;22.70;;;10.35;;
79241;SDS011;68670;48.720;9.118;2023-04-03T13:31:04;31.60;;;10.75;;
79241;SDS011;68670;48.720;9.118;2023-04-03T13:33:54;32.08;;;10.27;;
79241;SDS011;68670;48.720;9.118;2023-04-03T13:36:21;25.38;;;10.98;;
79241;SDS011;68670;48.720;9.118;2023-04-03T13:39:05;30.38;;;9.80;;
79241;SDS011;68670;48.720;9.118;2023-04-03T13:41:47;33.75;;;11.20;;
79241;SDS011;68670;48.720;9.118;2023-04-03T13:44:35;29.77;;;10.25;;
79241;SDS011;68670;48.720;9.118;2023-04-03T13:49:36;35.92;;;9.93;;
79241;SDS011;68670;48.720;9.118;2023-04-03T13:54:54;28.58;;;9.52;;
79241;SDS011;68670;48.720;9.118;2023-04-03T13:57:24;31.30;;;9.80;;
79241;SDS011;68670;48.720;9.118;2023-04-03T14:04:49;28.15;;;9.52;;
79241;SDS011;68670;48.720;9.118;2023-04-03T14:07:21;26.15;;;10.15;;
79241;SDS011;68670;48.720;9.118;2023-04-03T14:09:49;31.08;;;10.30;;
79241;SDS011;68670;48.720;9.118;2023-04-03T14:12:27;28.85;;;11.18;;
79241;SDS011;68670;48.720;9.118;2023-04-03T14:14:59;30.70;;;10.15;;
79241;SDS011;68670;48.720;9.118;2023-04-03T14:17:26;29.75;;;10.05;;
79241;SDS011;68670;48.720;9.118;2023-04-03T14:19:54;34.17;;;10.48;;
79241;SDS011;68670;48.720;9.118;2023-04-03T14:22:25;25.38;;;10.43;;
79241;SDS011;68670;48.720;9.118;2023-04-03T14:24:53;29.77;;;9.40;;
79241;SDS011;68670;48.720;9.118;2023-04-03T14:29:50;30.02;;;9.93;;
79241;SDS011;68670;48.720;9.118;2023-04-03T14:32:17;33.97;;;10.15;;
79241;SDS011;68670;48.720;9.118;2023-04-03T14:34:46;28.27;;;10.18;;
79241;SDS011;68670;48.720;9.118;2023-04-03T14:37:15;31.05;;;9.98;;
79241;SDS011;68670;48.720;9.118;2023-04-03T14:39:45;26.20;;;9.75;;
79241;SDS011;68670;48.720;9.118;2023-04-03T14:42:30;33.72;;;10.07;;
79241;SDS011;68670;48.720;9.118;2023-04-03T14:44:58;34.13;;;9.65;;
79241;SDS011;68670;48.720;9.118;2023-04-03T14:47:26;32.33;;;10.02;;
79241;SDS011;68670;48.720;9.118;2023-04-03T14:49:53;27.38;;;9.32;;
79241;SDS011;68670;48.720;9.118;2023-04-03T14:54:47;37.97;;;10.10;;
79241;SDS011;68670;48.720;9.118;2023-04-03T14:57:13;34.55;;;10.90;;
79241;SDS011;68670;48.720;9.118;2023-04-03T14:59:43;25.58;;;10.05;;
79241;SDS011;68670;48.720;9.118;2023-04-03T15:02:22;34.13;;;10.43;;
79241;SDS011;68670;48.720;9.118;2023-04-03T15:04:51;37.85;;;10.38;;
79241;SDS011;68670;48.720;9.118;2023-04-03T15:07:20;32.50;;;13.32;;
79241;SDS011;68670;48.720;9.118;2023-04-03T15:09:46;30.60;;;9.68;;
79241;SDS011;68670;48.720;9.118;2023-04-03T15:12:11;29.63;;;10.13;;
79241;SDS011;68670;48.720;9.118;2023-04-03T15:14:37;36.15;;;13.13;;
79241;SDS011;68670;48.720;9.118;2023-04-03T15:17:08;23.88;;;8.77;;
79241;SDS011;68670;48.720;9.118;2023-04-03T15:19:40;25.05;;;8.45;;
79241;SDS011;68670;48.720;9.118;2023-04-03T15:22:06;35.35;;;10.55;;
79241;SDS011;68670;48.720;9.118;2023-04-03T15:24:34;41.90;;;11.95;;
79241;SDS011;68670;48.720;9.118;2023-04-03T15:27:01;27.80;;;10.07;;
79241;SDS011;68670;48.720;9.118;2023-04-03T15:31:52;33.00;;;9.83;;
79241;SDS011;68670;48.720;9.118;2023-04-03T15:34:18;31.67;;;9.27;;
79241;SDS011;68670;48.720;9.118;2023-04-03T15:36:43;32.33;;;9.65;;
79241;SDS011;68670;48.720;9.118;2023-04-03T15:39:09;30.48;;;10.43;;
79241;SDS011;68670;48.720;9.118;2023-04-03T15:41:34;33.55;;;10.27;;
79241;SDS011;68670;48.720;9.118;2023-04-03T15:44:02;24.38;;;9.25;;
79241;SDS011;68670;48.720;9.118;2023-04-03T15:48:55;27.30;;;8.23;;
79241;SDS011;68670;48.720;9.118;2023-04-03T15:51:20;24.80;;;8.48;;
79241;SDS011;68670;48.720;9.118;2023-04-03T15:53:48;32.35;;;9.18;;
79241;SDS011;68670;48.720;9.118;2023-04-03T15:58:39;27.48;;;8.73;;
79241;SDS011;68670;48.720;9.118;2023-04-03T16:01:08;30.25;;;9.40;;
79241;SDS011;68670;48.720;9.118;2023-04-03T16:03:39;28.13;;;9.02;;
79241;SDS011;68670;48.720;9.118;2023-04-03T16:06:15;28.73;;;9.55;;
79241;SDS011;68670;48.720;9.118;2023-04-03T16:08:41;36.65;;;9.80;;
79241;SDS011;68670;48.720;9.118;2023-04-03T16:11:13;19.15;;;8.05;;
79241;SDS011;68670;48.720;9.118;2023-04-03T16:13:40;29.17;;;9.15;;
79241;SDS011;68670;48.720;9.118;2023-04-03T16:16:09;37.22;;;10.43;;
79241;SDS011;68670;48.720;9.118;2023-04-03T16:18:37;29.45;;;10.63;;
79241;SDS011;68670;48.720;9.118;2023-04-03T16:23:31;24.15;;;9.50;;
79241;SDS011;68670;48.720;9.118;2023-04-03T16:25:58;26.45;;;8.95;;
79241;SDS011;68670;48.720;9.118;2023-04-03T16:28:24;32.53;;;9.80;;
79241;SDS011;68670;48.720;9.118;2023-04-03T16:30:52;30.33;;;8.82;;
79241;SDS011;68670;48.720;9.118;2023-04-03T16:33:19;27.60;;;9.15;;
79241;SDS011;68670;48.720;9.118;2023-04-03T16:35:47;35.03;;;9.60;;
79241;SDS011;68670;48.720;9.118;2023-04-03T16:38:13;25.95;;;9.40;;
79241;SDS011;68670;48.720;9.118;2023-04-03T16:40:39;32.22;;;9.23;;
79241;SDS011;68670;48.720;9.118;2023-04-03T16:43:04;30.13;;;9.95;;
79241;SDS011;68670;48.720;9.118;2023-04-03T16:45:29;25.83;;;9.35;;
79241;SDS011;68670;48.720;9.118;2023-04-03T16:50:22;26.52;;;9.82;;
79241;SDS011;68670;48.720;9.118;2023-04-03T16:55:15;28.75;;;9.15;;
79241;SDS011;68670;48.720;9.118;2023-04-03T16:57:43;32.55;;;8.98;;
79241;SDS011;68670;48.720;9.118;2023-04-03T17:00:11;32.80;;;9.13;;